Time;durP1;ratioP1;P1;durP2;ratioP2;P2;SDS_P1;SDS_P2;PMS_P1;PMS_P2;Temp;Humidity;BMP_temperature;BMP_pressure;BME280_temperature;BME280_humidity;BME280_pressure;Samples;Min_cycle;Max_cycle;Signal;HPM_P1;HPM_P2
2021/03/22 01:29:14;;;;;;;14.33;5.63;;;;;;;;;;5056920;28;20060;-58
2021/03/22 01:31:45;;;;;;;18.27;7.47;;;;;;;;;;5057311;28;20021;-58
2021/03/22 01:37:21;;;;;;;20.23;6.13;;;;;;;;;;5035097;28;20068;-59
2021/03/22 01:43:39;;;;;;;18.87;6.83;;;;;;;;;;5055929;28;20040;-59
2021/03/22 01:46:08;;;;;;;21.13;7.40;;;;;;;;;;4988622;28;20382;-59
2021/03/22 01:48:56;;;;;;;14.13;6.90;;;;;;;;;;5056522;28;20028;-59
2021/03/22 01:51:47;;;;;;;21.27;7.43;;;;;;;;;;5038380;28;20033;-58
2021/03/22 01:54:40;;;;;;;19.73;6.60;;;;;;;;;;5055567;28;20040;-59
2021/03/22 01:57:38;;;;;;;;;;;;;;;;;;;;;
2021/03/22 02:00:33;;;;;;;13.03;5.23;;;;;;;;;;5056103;28;20021;-59
2021/03/22 02:06:45;;;;;;;15.70;6.33;;;;;;;;;;5021859;28;20033;-59
2021/03/22 02:09:22;;;;;;;16.30;4.67;;;;;;;;;;5055939;28;20029;-58
2021/03/22 02:18:29;;;;;;;12.13;4.75;;;;;;;;;;5055305;28;20036;-57
2021/03/22 02:21:16;;;;;;;15.85;6.55;;;;;;;;;;5055895;28;20021;-59
2021/03/22 02:24:01;;;;;;;15.93;6.37;;;;;;;;;;5056018;28;20028;-58
2021/03/22 02:26:45;;;;;;;19.03;6.50;;;;;;;;;;5054553;28;20475;-58
2021/03/22 02:29:43;;;;;;;;;;;;;;;;;;;;;
2021/03/22 02:32:48;;;;;;;9.03;4.87;;;;;;;;;;5054496;28;20443;-58
2021/03/22 02:35:42;;;;;;;14.90;5.43;;;;;;;;;;4958238;28;20034;-59
2021/03/22 02:38:10;;;;;;;21.27;6.80;;;;;;;;;;4974059;28;20113;-59
2021/03/22 02:40:54;;;;;;;17.73;6.73;;;;;;;;;;5017521;28;20086;-58
2021/03/22 02:43:38;;;;;;;14.03;5.93;;;;;;;;;;5037160;28;20044;-58
2021/03/22 02:46:29;;;;;;;30.37;8.17;;;;;;;;;;4993762;28;20406;-59
2021/03/22 02:48:59;;;;;;;20.10;6.70;;;;;;;;;;4986898;28;20030;-59
2021/03/22 02:51:51;;;;;;;19.83;5.93;;;;;;;;;;4993901;28;20039;-58
2021/03/22 02:54:45;;;;;;;13.20;5.23;;;;;;;;;;4993431;28;20030;-58
2021/03/22 03:01:10;;;;;;;15.57;6.60;;;;;;;;;;4935584;29;20036;-57
2021/03/22 03:03:58;;;;;;;14.70;5.60;;;;;;;;;;4935469;29;20040;-59
2021/03/22 03:06:52;;;;;;;12.60;5.03;;;;;;;;;;4935840;29;20043;-57
2021/03/22 03:09:31;;;;;;;17.70;6.10;;;;;;;;;;4954110;28;20034;-58
2021/03/22 03:12:18;;;;;;;12.40;5.03;;;;;;;;;;4978198;28;20081;-58
2021/03/22 03:17:51;;;;;;;25.70;6.43;;;;;;;;;;4993599;28;20037;-58
2021/03/22 03:23:30;;;;;;;13.77;5.17;;;;;;;;;;5015395;28;20045;-63
2021/03/22 03:26:13;;;;;;;11.23;3.93;;;;;;;;;;5036524;28;20075;-59
2021/03/22 03:28:52;;;;;;;13.27;4.00;;;;;;;;;;5036732;28;20045;-59
2021/03/22 03:31:21;;;;;;;10.10;4.30;;;;;;;;;;5043312;28;20555;-59
2021/03/22 03:33:47;;;;;;;25.90;7.17;;;;;;;;;;5054742;28;20017;-58
2021/03/22 03:36:32;;;;;;;16.73;5.27;;;;;;;;;;5052571;28;20087;-58
2021/03/22 03:39:09;;;;;;;10.07;3.63;;;;;;;;;;5053927;28;20070;-58
2021/03/22 03:41:54;;;;;;;12.70;5.50;;;;;;;;;;5032596;28;20025;-59
2021/03/22 03:44:55;;;;;;;11.50;5.37;;;;;;;;;;5051377;28;20025;-57
2021/03/22 03:51:05;;;;;;;11.47;6.00;;;;;;;;;;5048903;28;20048;-58
2021/03/22 03:53:47;;;;;;;18.47;5.57;;;;;;;;;;5036448;28;20039;-59
2021/03/22 03:56:37;;;;;;;18.23;4.00;;;;;;;;;;5036119;28;20048;-59
2021/03/22 03:59:22;;;;;;;18.55;5.63;;;;;;;;;;5036867;28;20450;-58
2021/03/22 04:02:14;;;;;;;13.87;5.73;;;;;;;;;;5054284;28;20040;-58
2021/03/22 04:04:53;;;;;;;15.43;5.57;;;;;;;;;;5032708;28;20048;-58
2021/03/22 04:07:22;;;;;;;8.90;4.40;;;;;;;;;;5032438;28;20045;-58
2021/03/22 04:10:05;;;;;;;15.63;3.23;;;;;;;;;;5015056;28;20025;-59
2021/03/22 04:12:57;;;;;;;18.63;4.60;;;;;;;;;;5032563;28;20077;-59
2021/03/22 04:15:45;;;;;;;;;;;;;;;;;;;;;
2021/03/22 04:18:43;;;;;;;17.97;3.90;;;;;;;;;;5029765;28;20037;-59
2021/03/22 04:24:07;;;;;;;11.13;3.77;;;;;;;;;;5032667;28;20478;-59
2021/03/22 04:26:52;;;;;;;8.87;4.13;;;;;;;;;;5015179;28;20136;-58
2021/03/22 04:29:50;;;;;;;17.00;4.43;;;;;;;;;;5043307;28;20033;-59
2021/03/22 04:32:22;;;;;;;15.07;4.00;;;;;;;;;;5053684;28;20029;-58
2021/03/22 04:35:17;;;;;;;9.10;3.43;;;;;;;;;;5054100;28;20447;-58
2021/03/22 04:41:05;;;;;;;11.13;4.50;;;;;;;;;;5030090;28;20032;-58
2021/03/22 04:43:50;;;;;;;8.30;2.67;;;;;;;;;;5053779;28;20104;-58
2021/03/22 04:46:33;;;;;;;;;;;;;;;;;;;;;
2021/03/22 04:49:08;;;;;;;15.27;3.77;;;;;;;;;;5024250;28;20032;-58
2021/03/22 04:55:03;;;;;;;8.17;3.93;;;;;;;;;;5043583;28;20152;-59
2021/03/22 04:57:33;;;;;;;19.60;5.50;;;;;;;;;;5058073;28;20117;-59
2021/03/22 05:00:18;;;;;;;9.60;2.90;;;;;;;;;;5057232;28;20086;-58
2021/03/22 05:06:25;;;;;;;11.13;3.50;;;;;;;;;;4956499;29;20050;-58
2021/03/22 05:09:18;;;;;;;14.80;3.77;;;;;;;;;;5041642;28;20086;-59
2021/03/22 05:12:08;;;;;;;18.70;6.03;;;;;;;;;;5057193;28;20021;-57
2021/03/22 05:21:13;;;;;;;13.27;3.73;;;;;;;;;;5056703;28;20037;-58
2021/03/22 05:23:57;;;;;;;11.33;3.17;;;;;;;;;;5057001;28;20047;-58
2021/03/22 05:26:33;;;;;;;13.70;4.27;;;;;;;;;;5016423;28;20049;-59
2021/03/22 05:29:08;;;;;;;13.13;4.87;;;;;;;;;;5057409;28;20076;-58
2021/03/22 05:31:58;;;;;;;10.70;2.97;;;;;;;;;;5038773;28;20044;-58
2021/03/22 05:34:42;;;;;;;9.23;3.03;;;;;;;;;;5038366;28;20029;-59
2021/03/22 05:37:21;;;;;;;14.57;2.67;;;;;;;;;;5057026;28;20057;-59
2021/03/22 05:40:13;;;;;;;7.63;2.50;;;;;;;;;;5056223;28;20052;-59
2021/03/22 05:43:04;;;;;;;11.63;4.00;;;;;;;;;;5041365;28;20524;-56
2021/03/22 05:46:07;;;;;;;9.43;3.88;;;;;;;;;;5038161;28;20071;-57
2021/03/22 05:52:10;;;;;;;13.02;4.93;;;;;;;;;;5054073;28;20029;-58
2021/03/22 05:55:16;;;;;;;11.47;4.53;;;;;;;;;;5056968;28;20029;-59
2021/03/22 06:01:01;;;;;;;9.50;3.07;;;;;;;;;;5050039;28;20056;-58
2021/03/22 06:03:51;;;;;;;6.60;2.93;;;;;;;;;;5037769;28;20029;-59
2021/03/22 06:06:29;;;;;;;13.30;4.43;;;;;;;;;;5055303;28;20040;-59
2021/03/22 06:09:16;;;;;;;12.10;2.43;;;;;;;;;;5055813;28;20110;-59
2021/03/22 06:12:03;;;;;;;10.30;2.93;;;;;;;;;;5055881;28;20131;-58
2021/03/22 06:18:02;;;;;;;9.03;3.87;;;;;;;;;;5055111;28;20044;-58
2021/03/22 06:20:39;;;;;;;9.13;3.67;;;;;;;;;;5055809;28;20025;-59
2021/03/22 06:26:43;;;;;;;10.37;3.00;;;;;;;;;;5019617;28;20526;-59
2021/03/22 06:30:02;;;;;;;11.57;3.63;;;;;;;;;;5036590;28;20524;-59
2021/03/22 06:32:27;;;;;;;14.57;4.57;;;;;;;;;;5051514;28;20043;-59
2021/03/22 06:35:13;;;;;;;;;;;;;;;;;;;;;
2021/03/22 06:37:48;;;;;;;5.33;4.00;;;;;;;;;;5055500;28;20053;-57
2021/03/22 06:40:49;;;;;;;13.53;2.80;;;;;;;;;;5037079;28;20044;-58
2021/03/22 06:43:15;;;;;;;;;;;;;;;;;;5055989;28;20025;-56
2021/03/22 06:46:10;;;;;;;14.20;3.80;;;;;;;;;;5032023;28;19912;-56
2021/03/22 06:52:18;;;;;;;15.17;3.80;;;;;;;;;;5032044;28;20041;-57
2021/03/22 06:58:19;;;;;;;12.90;3.93;;;;;;;;;;5030514;28;20135;-56
2021/03/22 07:01:03;;;;;;;10.43;3.43;;;;;;;;;;4934777;29;20027;-56
2021/03/22 07:03:43;;;;;;;11.13;3.80;;;;;;;;;;4934819;29;20078;-58
2021/03/22 07:06:48;;;;;;;15.25;4.57;;;;;;;;;;4916434;29;20052;-57
2021/03/22 07:09:45;;;;;;;;;;;;;;;;;;;;;
2021/03/22 07:12:33;;;;;;;23.33;5.33;;;;;;;;;;4916099;29;20390;-56
2021/03/22 07:15:36;;;;;;;9.93;4.90;;;;;;;;;;4915581;29;20521;-58
2021/03/22 07:18:19;;;;;;;24.60;5.00;;;;;;;;;;4934403;29;20569;-57
2021/03/22 07:21:08;;;;;;;8.87;3.50;;;;;;;;;;4935295;29;20462;-57
2021/03/22 07:24:02;;;;;;;12.97;3.93;;;;;;;;;;4930058;29;20155;-56
2021/03/22 07:27:03;;;;;;;9.60;4.93;;;;;;;;;;4917808;29;20051;-57
2021/03/22 07:30:01;;;;;;;21.80;3.83;;;;;;;;;;4919181;29;20040;-57
2021/03/22 07:32:51;;;;;;;13.23;3.27;;;;;;;;;;4934527;29;20439;-58
2021/03/22 07:35:23;;;;;;;11.40;4.72;;;;;;;;;;4978684;28;20320;-56
2021/03/22 07:38:08;;;;;;;9.17;3.90;;;;;;;;;;5028789;28;20087;-58
2021/03/22 07:40:44;;;;;;;15.13;3.20;;;;;;;;;;5033979;28;20075;-57
2021/03/22 07:43:16;;;;;;;14.60;4.97;;;;;;;;;;5016108;28;20038;-56
2021/03/22 07:46:06;;;;;;;10.17;3.77;;;;;;;;;;5016041;28;20029;-57
2021/03/22 07:48:58;;;;;;;11.13;4.20;;;;;;;;;;4986589;28;20121;-55
2021/03/22 07:51:48;;;;;;;10.33;4.27;;;;;;;;;;5034607;28;20029;-58
2021/03/22 07:54:36;;;;;;;16.70;3.97;;;;;;;;;;5016201;28;20120;-58
2021/03/22 07:57:30;;;;;;;13.17;5.60;;;;;;;;;;5033561;28;20025;-58
2021/03/22 08:00:17;;;;;;;8.87;3.70;;;;;;;;;;5033523;28;20456;-57
2021/03/22 08:02:58;;;;;;;11.93;4.60;;;;;;;;;;5000426;28;20030;-57
2021/03/22 08:05:33;;;;;;;13.30;4.67;;;;;;;;;;5034456;28;20036;-58
2021/03/22 08:08:41;;;;;;;6.07;2.57;;;;;;;;;;5033898;28;20034;-57
2021/03/22 08:11:31;;;;;;;14.13;4.63;;;;;;;;;;4939122;28;20040;-57
2021/03/22 08:14:13;;;;;;;17.35;3.13;;;;;;;;;;4988092;28;20042;-56
2021/03/22 08:16:55;;;;;;;9.67;3.13;;;;;;;;;;5015738;28;20041;-57
2021/03/22 08:22:22;;;;;;;11.47;4.60;;;;;;;;;;5024048;28;20029;-58
2021/03/22 08:28:23;;;;;;;13.60;2.53;;;;;;;;;;5045827;28;20048;-56
2021/03/22 08:31:04;;;;;;;11.50;3.93;;;;;;;;;;5058491;28;20040;-57
2021/03/22 08:33:33;;;;;;;;;;;;;;;;;;5058624;28;20121;-56
2021/03/22 08:39:25;;;;;;;13.02;2.78;;;;;;;;;;5057877;28;20033;-57
2021/03/22 08:45:41;;;;;;;6.80;2.95;;;;;;;;;;4995255;28;20031;-56
2021/03/22 08:48:33;;;;;;;5.23;1.93;;;;;;;;;;5057102;28;20065;-58
2021/03/22 08:51:14;;;;;;;3.77;1.87;;;;;;;;;;5053458;28;20045;-56
2021/03/22 08:56:58;;;;;;;9.17;1.97;;;;;;;;;;5056679;28;20036;-57
2021/03/22 08:59:33;;;;;;;4.33;2.13;;;;;;;;;;5038993;28;20071;-58
2021/03/22 09:02:18;;;;;;;6.60;1.93;;;;;;;;;;5038399;28;20032;-56
2021/03/22 09:04:56;;;;;;;10.93;2.93;;;;;;;;;;5056736;28;20033;-58
2021/03/22 09:07:45;;;;;;;5.13;2.27;;;;;;;;;;5039859;28;20029;-57
2021/03/22 09:10:47;;;;;;;6.57;1.93;;;;;;;;;;5001588;28;20041;-57
2021/03/22 09:13:31;;;;;;;10.87;2.70;;;;;;;;;;5038035;28;20033;-56
2021/03/22 09:16:26;;;;;;;;;;;;;;;;;;;;;
2021/03/22 09:19:14;;;;;;;7.57;3.47;;;;;;;;;;5055817;28;20021;-57
2021/03/22 09:21:54;;;;;;;9.90;2.67;;;;;;;;;;5055749;28;20021;-57
2021/03/22 09:24:45;;;;;;;8.60;3.17;;;;;;;;;;5056124;28;20036;-58
2021/03/22 09:27:20;;;;;;;7.60;2.50;;;;;;;;;;5036612;28;20135;-58
2021/03/22 09:30:16;;;;;;;7.37;3.63;;;;;;;;;;5056565;28;20037;-58
2021/03/22 09:32:59;;;;;;;20.23;3.93;;;;;;;;;;5057133;28;20463;-58
2021/03/22 09:36:00;;;;;;;;;;;;;;;;;;;;;
2021/03/22 09:38:54;;;;;;;13.80;4.23;;;;;;;;;;5044397;28;20029;-57
2021/03/22 09:41:57;;;;;;;11.40;2.23;;;;;;;;;;5036946;28;20048;-58
2021/03/22 09:44:47;;;;;;;9.60;2.23;;;;;;;;;;5056360;28;20079;-55
2021/03/22 09:47:35;;;;;;;5.43;3.08;;;;;;;;;;5045696;28;20383;-57
2021/03/22 09:50:23;;;;;;;7.33;2.17;;;;;;;;;;5056103;28;20029;-54
2021/03/22 09:56:02;;;;;;;12.00;3.10;;;;;;;;;;5048724;28;20044;-57
2021/03/22 10:04:19;;;;;;;4.30;1.80;;;;;;;;;;5051914;28;20048;-58
2021/03/22 10:07:22;;;;;;;10.35;3.65;;;;;;;;;;5055632;28;20437;-56
2021/03/22 10:10:11;;;;;;;5.93;2.30;;;;;;;;;;5037582;28;20096;-56
2021/03/22 10:13:08;;;;;;;6.23;3.30;;;;;;;;;;5039309;28;20025;-58
2021/03/22 10:15:55;;;;;;;13.30;4.13;;;;;;;;;;5056654;28;20380;-58
2021/03/22 10:21:51;;;;;;;3.17;1.60;;;;;;;;;;4935767;29;20533;-58
2021/03/22 10:24:36;;;;;;;7.83;2.03;;;;;;;;;;5030942;28;20040;-58
2021/03/22 10:27:08;;;;;;;8.50;2.77;;;;;;;;;;5036889;28;20063;-58
2021/03/22 10:29:46;;;;;;;10.52;2.58;;;;;;;;;;5038026;28;20033;-57
2021/03/22 10:32:25;;;;;;;12.20;4.67;;;;;;;;;;5055971;28;20031;-56
2021/03/22 10:35:03;;;;;;;6.57;2.40;;;;;;;;;;4993828;28;20105;-57
2021/03/22 10:37:51;;;;;;;6.23;2.50;;;;;;;;;;4994222;28;20038;-58
2021/03/22 10:40:33;;;;;;;6.23;2.70;;;;;;;;;;4978764;28;20034;-57
2021/03/22 10:43:10;;;;;;;8.23;2.67;;;;;;;;;;4977072;28;20505;-58
2021/03/22 10:45:46;;;;;;;8.05;1.92;;;;;;;;;;4978652;28;20022;-58
2021/03/22 10:48:47;;;;;;;3.85;2.45;;;;;;;;;;4993934;28;20054;-58
2021/03/22 10:54:27;;;;;;;2.33;1.40;;;;;;;;;;4990110;28;20062;-58
2021/03/22 10:57:21;;;;;;;4.70;2.17;;;;;;;;;;4976981;28;20065;-56
2021/03/22 10:59:51;;;;;;;3.73;2.13;;;;;;;;;;4993904;28;20039;-58
2021/03/22 11:02:48;;;;;;;6.33;2.57;;;;;;;;;;4956952;28;20606;-54
2021/03/22 11:08:26;;;;;;;3.37;1.47;;;;;;;;;;4998672;28;20092;-57
2021/03/22 11:11:15;;;;;;;3.00;1.73;;;;;;;;;;4996239;28;20418;-58
2021/03/22 11:14:04;;;;;;;10.47;2.77;;;;;;;;;;4995018;28;20473;-57
2021/03/22 11:16:47;;;;;;;3.73;2.03;;;;;;;;;;4996005;28;20038;-57
2021/03/22 11:22:41;;;;;;;7.00;3.17;;;;;;;;;;4998186;28;20034;-57
2021/03/22 11:25:35;;;;;;;9.82;2.85;;;;;;;;;;4972791;28;20612;-58
2021/03/22 11:28:06;;;;;;;6.15;2.70;;;;;;;;;;4956437;28;20051;-58
2021/03/22 11:30:43;;;;;;;6.78;2.15;;;;;;;;;;4957935;28;20027;-58
2021/03/22 11:33:22;;;;;;;4.72;2.22;;;;;;;;;;4991528;28;20539;-58
2021/03/22 11:36:11;;;;;;;4.05;1.50;;;;;;;;;;5012678;28;20038;-55
2021/03/22 11:39:00;;;;;;;3.92;2.25;;;;;;;;;;5011750;28;20116;-57
2021/03/22 11:41:52;;;;;;;5.93;2.33;;;;;;;;;;4983018;28;20030;-58
2021/03/22 11:47:40;;;;;;;5.72;1.92;;;;;;;;;;5009021;28;20041;-58
2021/03/22 11:50:24;;;;;;;7.53;2.38;;;;;;;;;;5011788;28;20125;-58
2021/03/22 11:53:17;;;;;;;3.33;1.58;;;;;;;;;;5011801;28;20400;-58
2021/03/22 11:56:14;;;;;;;;;;;;;;;;;;;;;
2021/03/22 11:59:07;;;;;;;7.15;2.15;;;;;;;;;;5053720;28;20033;-58
2021/03/22 12:01:34;;;;;;;5.28;1.70;;;;;;;;;;5036455;28;20170;-56
2021/03/22 12:04:28;;;;;;;4.97;2.10;;;;;;;;;;5053559;28;20028;-58
2021/03/22 12:07:16;;;;;;;4.40;1.65;;;;;;;;;;5054125;28;20387;-58
2021/03/22 12:10:15;;;;;;;;;;;;;;;;;;;;;
2021/03/22 12:13:01;;;;;;;4.28;2.08;;;;;;;;;;5053624;28;20428;-58
2021/03/22 12:15:37;;;;;;;7.18;2.03;;;;;;;;;;5053285;28;20036;-57
2021/03/22 12:18:27;;;;;;;4.35;1.58;;;;;;;;;;5054280;28;20072;-58
2021/03/22 12:23:53;;;;;;;5.88;2.22;;;;;;;;;;5033818;28;20057;-58
2021/03/22 12:26:30;;;;;;;6.15;2.05;;;;;;;;;;5054130;28;20459;-57
2021/03/22 12:29:10;;;;;;;;;;;;;;;;;;;;;
2021/03/22 12:31:59;;;;;;;4.50;1.70;;;;;;;;;;5053724;28;20032;-58
2021/03/22 12:34:35;;;;;;;5.38;1.98;;;;;;;;;;5035444;28;20033;-58
2021/03/22 12:37:04;;;;;;;6.80;2.47;;;;;;;;;;5053152;28;20021;-58
2021/03/22 12:40:09;;;;;;;;;;;;;;;;;;;;;
2021/03/22 12:42:48;;;;;;;7.32;1.60;;;;;;;;;;5015239;28;20033;-56
2021/03/22 12:45:35;;;;;;;4.68;2.13;;;;;;;;;;5052904;28;20041;-59
2021/03/22 12:48:15;;;;;;;7.00;2.77;;;;;;;;;;5053297;28;20037;-57
2021/03/22 12:50:50;;;;;;;6.95;2.65;;;;;;;;;;5029837;28;20435;-58
2021/03/22 12:53:46;;;;;;;2.85;1.80;;;;;;;;;;5031420;28;20072;-58
2021/03/22 12:56:25;;;;;;;9.30;3.00;;;;;;;;;;5031724;28;20032;-58
2021/03/22 12:59:14;;;;;;;6.73;2.43;;;;;;;;;;4972907;28;20508;-58
2021/03/22 13:01:55;;;;;;;2.87;1.63;;;;;;;;;;4969105;28;20481;-57
2021/03/22 13:07:34;;;;;;;4.05;1.92;;;;;;;;;;4970202;28;20457;-55
2021/03/22 13:10:22;;;;;;;5.40;2.13;;;;;;;;;;4971710;28;20473;-58
2021/03/22 13:12:57;;;;;;;8.20;2.40;;;;;;;;;;4971916;28;20055;-58
2021/03/22 13:15:42;;;;;;;6.77;2.33;;;;;;;;;;4956332;28;20046;-56
2021/03/22 13:18:38;;;;;;;6.00;2.43;;;;;;;;;;4975684;28;20505;-57
2021/03/22 13:21:45;;;;;;;4.57;2.10;;;;;;;;;;4966451;28;20034;-57
2021/03/22 13:27:21;;;;;;;2.80;1.70;;;;;;;;;;4945282;28;20056;-56
2021/03/22 13:29:51;;;;;;;5.43;2.40;;;;;;;;;;4992968;28;20470;-58
2021/03/22 13:32:50;;;;;;;5.75;2.55;;;;;;;;;;5056726;28;20032;-55
2021/03/22 13:35:36;;;;;;;7.50;2.97;;;;;;;;;;5056438;28;20039;-57
2021/03/22 13:38:15;;;;;;;5.72;2.92;;;;;;;;;;5056046;28;20372;-57
2021/03/22 13:40:41;;;;;;;4.50;2.50;;;;;;;;;;5055985;28;20021;-58
2021/03/22 13:43:39;;;;;;;5.50;2.58;;;;;;;;;;5056248;28;20409;-54
2021/03/22 13:46:08;;;;;;;9.07;3.55;;;;;;;;;;5056897;28;20447;-56
2021/03/22 13:52:03;;;;;;;3.80;2.60;;;;;;;;;;5013559;28;20460;-57
2021/03/22 13:54:41;;;;;;;7.00;2.88;;;;;;;;;;5008389;28;20042;-57
2021/03/22 13:57:37;;;;;;;5.53;2.75;;;;;;;;;;5013841;28;20041;-58
2021/03/22 14:00:39;;;;;;;3.75;2.22;;;;;;;;;;4993897;28;20041;-59
2021/03/22 14:03:33;;;;;;;4.20;2.65;;;;;;;;;;5055452;28;20029;-58
2021/03/22 14:09:24;;;;;;;6.30;2.38;;;;;;;;;;5055643;28;20097;-56
2021/03/22 14:12:06;;;;;;;10.00;3.40;;;;;;;;;;5055648;28;20029;-58
2021/03/22 14:14:41;;;;;;;5.10;2.63;;;;;;;;;;5055825;28;20083;-56
2021/03/22 14:17:39;;;;;;;6.33;3.73;;;;;;;;;;5053048;28;20418;-57
2021/03/22 14:20:16;;;;;;;6.55;3.47;;;;;;;;;;5023272;28;20131;-58
2021/03/22 14:22:48;;;;;;;6.20;3.50;;;;;;;;;;5055575;28;20027;-57
2021/03/22 14:26:04;;;;;;;6.97;3.97;;;;;;;;;;5056000;28;20033;-58
2021/03/22 14:28:08;;;;;;;4.40;3.20;;;;;;;;;;5043809;28;20056;-58
2021/03/22 14:30:49;;;;;;;7.03;3.53;;;;;;;;;;5055404;28;20078;-57
2021/03/22 14:33:33;;;;;;;;;;;;;;;;;;;;;
2021/03/22 14:36:09;;;;;;;12.75;4.13;;;;;;;;;;5052424;28;20344;-59
2021/03/22 14:39:10;;;;;;;5.10;3.50;;;;;;;;;;5055169;28;20374;-58
2021/03/22 14:41:43;;;;;;;7.32;3.72;;;;;;;;;;5029136;28;20025;-57
2021/03/22 14:44:38;;;;;;;9.25;3.90;;;;;;;;;;5055494;28;20033;-58
2021/03/22 14:47:17;;;;;;;7.35;3.65;;;;;;;;;;5055584;28;20032;-58
2021/03/22 14:49:49;;;;;;;9.60;3.87;;;;;;;;;;5037056;28;20030;-56
2021/03/22 14:52:31;;;;;;;;;;;;;;;;;;;;;
2021/03/22 14:55:13;;;;;;;3.92;2.65;;;;;;;;;;5055028;28;20547;-59
2021/03/22 14:57:54;;;;;;;9.50;4.90;;;;;;;;;;5055382;28;20358;-57
2021/03/22 15:04:13;;;;;;;11.30;3.92;;;;;;;;;;4986473;28;20116;-56
2021/03/22 15:07:06;;;;;;;4.87;3.43;;;;;;;;;;5054631;28;20021;-56
2021/03/22 15:09:54;;;;;;;7.68;4.18;;;;;;;;;;5054828;28;20523;-58
2021/03/22 15:12:34;;;;;;;5.63;3.15;;;;;;;;;;5054691;28;20021;-57
2021/03/22 15:15:23;;;;;;;8.00;4.32;;;;;;;;;;5051252;28;20414;-55
2021/03/22 15:18:08;;;;;;;;;;;;;;;;;;;;;
2021/03/22 15:20:57;;;;;;;7.65;3.38;;;;;;;;;;5054236;28;20031;-56
2021/03/22 15:23:40;;;;;;;11.13;4.23;;;;;;;;;;5054071;28;20470;-57
2021/03/22 15:26:34;;;;;;;5.35;3.45;;;;;;;;;;5036777;28;20029;-58
2021/03/22 15:29:03;;;;;;;6.20;3.15;;;;;;;;;;5034267;28;20042;-55
2021/03/22 15:31:46;;;;;;;4.57;3.17;;;;;;;;;;5033723;28;20083;-58
2021/03/22 15:34:16;;;;;;;8.33;3.37;;;;;;;;;;5034587;28;20103;-57
2021/03/22 15:36:57;;;;;;;9.90;4.07;;;;;;;;;;4998910;28;20037;-56
2021/03/22 15:39:34;;;;;;;13.23;3.15;;;;;;;;;;5016614;28;20030;-56
2021/03/22 15:45:09;;;;;;;6.90;4.30;;;;;;;;;;5026291;28;20501;-56
2021/03/22 15:47:40;;;;;;;8.60;3.40;;;;;;;;;;5034308;28;20033;-56
2021/03/22 15:50:28;;;;;;;6.23;3.30;;;;;;;;;;5033678;28;20094;-55
2021/03/22 15:53:02;;;;;;;12.52;4.75;;;;;;;;;;5017100;28;20463;-58
2021/03/22 15:55:34;;;;;;;6.63;3.23;;;;;;;;;;5033856;28;20048;-58
2021/03/22 15:58:07;;;;;;;5.93;3.00;;;;;;;;;;5015594;28;20037;-58
2021/03/22 16:00:49;;;;;;;10.13;4.20;;;;;;;;;;5016011;28;20040;-57
2021/03/22 16:03:38;;;;;;;9.43;4.63;;;;;;;;;;5033721;28;20567;-57
2021/03/22 16:06:13;;;;;;;7.43;4.40;;;;;;;;;;5008032;28;20045;-57
2021/03/22 16:08:53;;;;;;;10.33;5.07;;;;;;;;;;5034196;28;20030;-58
2021/03/22 16:11:41;;;;;;;13.57;5.20;;;;;;;;;;5028871;28;20048;-58
2021/03/22 16:14:44;;;;;;;6.97;4.23;;;;;;;;;;5034519;28;20524;-58
2021/03/22 16:20:33;;;;;;;8.60;4.20;;;;;;;;;;5032748;28;20029;-56
2021/03/22 16:22:59;;;;;;;7.73;4.47;;;;;;;;;;4999749;28;20030;-57
2021/03/22 16:25:37;;;;;;;6.97;5.20;;;;;;;;;;5011037;28;20030;-57
2021/03/22 16:28:07;;;;;;;6.30;5.27;;;;;;;;;;5014034;28;20510;-58
2021/03/22 16:30:53;;;;;;;9.18;4.22;;;;;;;;;;5014431;28;20038;-57
2021/03/22 16:33:45;;;;;;;7.35;4.05;;;;;;;;;;5014082;28;20359;-58
2021/03/22 16:36:28;;;;;;;9.70;4.43;;;;;;;;;;5008784;28;20120;-58
2021/03/22 16:38:54;;;;;;;4.43;3.03;;;;;;;;;;5028606;28;20040;-58
2021/03/22 16:44:45;;;;;;;8.02;5.18;;;;;;;;;;5030641;28;20032;-58
2021/03/22 16:50:48;;;;;;;9.77;5.17;;;;;;;;;;4953178;28;20460;-55
2021/03/22 16:53:23;;;;;;;6.60;4.37;;;;;;;;;;5032295;28;20080;-55
2021/03/22 16:55:58;;;;;;;6.73;3.93;;;;;;;;;;5040562;28;20025;-55
2021/03/22 16:58:48;;;;;;;6.88;4.65;;;;;;;;;;5039368;28;20167;-56
2021/03/22 17:01:24;;;;;;;12.37;4.30;;;;;;;;;;5056055;28;20066;-56
2021/03/22 17:07:09;;;;;;;5.27;3.57;;;;;;;;;;5045980;28;20033;-58
2021/03/22 17:09:51;;;;;;;8.77;4.37;;;;;;;;;;5056494;28;20122;-57
2021/03/22 17:12:44;;;;;;;9.07;3.60;;;;;;;;;;5055929;28;20084;-59
2021/03/22 17:15:27;;;;;;;6.57;4.28;;;;;;;;;;5056234;28;20025;-58
2021/03/22 17:18:21;;;;;;;6.83;4.20;;;;;;;;;;5038642;28;20391;-58
2021/03/22 17:21:16;;;;;;;6.90;4.38;;;;;;;;;;5038358;28;20037;-58
2021/03/22 17:29:57;;;;;;;9.33;4.27;;;;;;;;;;5027001;28;20029;-58
2021/03/22 17:32:52;;;;;;;8.70;4.50;;;;;;;;;;5056282;28;20040;-58
2021/03/22 17:35:22;;;;;;;7.53;4.17;;;;;;;;;;5054365;28;20540;-55
2021/03/22 17:38:26;;;;;;;7.73;3.83;;;;;;;;;;5055830;28;20029;-55
2021/03/22 17:41:21;;;;;;;8.93;3.80;;;;;;;;;;4975421;28;20047;-56
2021/03/22 17:44:23;;;;;;;4.00;3.10;;;;;;;;;;4974041;28;20082;-58
2021/03/22 17:46:48;;;;;;;9.68;4.68;;;;;;;;;;4974177;28;20512;-59
2021/03/22 17:49:22;;;;;;;7.63;3.60;;;;;;;;;;4974912;28;20035;-58
2021/03/22 17:51:58;;;;;;;;;;;;;;;;;;;;;
2021/03/22 17:54:52;;;;;;;6.18;4.40;;;;;;;;;;4976010;28;20037;-56
2021/03/22 17:57:39;;;;;;;7.90;4.30;;;;;;;;;;5015442;28;20479;-57
2021/03/22 18:03:03;;;;;;;9.00;4.80;;;;;;;;;;5040392;28;20028;-58
2021/03/22 18:05:46;;;;;;;;;;;;;;;;;;;;;
2021/03/22 18:08:24;;;;;;;5.60;4.55;;;;;;;;;;5052350;28;20037;-56
2021/03/22 18:11:10;;;;;;;9.47;4.17;;;;;;;;;;5055713;28;20096;-56
2021/03/22 18:13:50;;;;;;;12.57;4.17;;;;;;;;;;5037430;28;20478;-57
2021/03/22 18:16:34;;;;;;;4.95;3.30;;;;;;;;;;5052517;28;20037;-55
2021/03/22 18:19:15;;;;;;;8.50;3.97;;;;;;;;;;5037943;28;20362;-56
2021/03/22 18:21:48;;;;;;;5.87;4.00;;;;;;;;;;5037425;28;20490;-57
2021/03/22 18:24:25;;;;;;;9.40;4.10;;;;;;;;;;5037165;28;20052;-55
2021/03/22 18:26:57;;;;;;;10.32;4.57;;;;;;;;;;5054472;28;20021;-58
2021/03/22 18:29:31;;;;;;;6.03;4.20;;;;;;;;;;5055654;28;20076;-57
2021/03/22 18:32:06;;;;;;;10.83;5.20;;;;;;;;;;5055166;28;20029;-58
2021/03/22 18:34:52;;;;;;;9.73;4.37;;;;;;;;;;5055389;28;20467;-55
2021/03/22 18:37:39;;;;;;;8.10;3.77;;;;;;;;;;5038830;28;20033;-57
2021/03/22 18:43:39;;;;;;;6.53;4.43;;;;;;;;;;4992973;28;20030;-57
2021/03/22 18:46:17;;;;;;;8.70;4.27;;;;;;;;;;4947324;28;20030;-58
2021/03/22 18:48:49;;;;;;;9.60;5.43;;;;;;;;;;4976598;28;20042;-56
2021/03/22 18:51:20;;;;;;;9.03;4.83;;;;;;;;;;4976799;28;20038;-58
2021/03/22 18:53:46;;;;;;;;;;;;;;;;;;5003213;28;20532;-59
2021/03/22 18:56:32;;;;;;;8.80;4.63;;;;;;;;;;5055224;28;19904;-58
2021/03/22 18:59:23;;;;;;;6.88;4.07;;;;;;;;;;5036666;28;20095;-58
2021/03/22 19:05:19;;;;;;;5.17;3.27;;;;;;;;;;5054551;28;20029;-58
2021/03/22 19:08:09;;;;;;;15.57;4.50;;;;;;;;;;5036334;28;20033;-58
2021/03/22 19:10:56;;;;;;;5.03;3.57;;;;;;;;;;5024240;28;20096;-58
2021/03/22 19:14:00;;;;;;;8.48;4.47;;;;;;;;;;5051167;28;20054;-58
2021/03/22 19:16:39;;;;;;;10.47;4.77;;;;;;;;;;5036673;28;20140;-58
2021/03/22 19:19:30;;;;;;;8.37;4.67;;;;;;;;;;5035275;28;20033;-57
2021/03/22 19:22:15;;;;;;;;;;;;;;;;;;;;;
2021/03/22 19:24:57;;;;;;;9.23;4.17;;;;;;;;;;5054059;28;19904;-59
2021/03/22 19:27:38;;;;;;;8.47;4.37;;;;;;;;;;5050939;28;20140;-58
2021/03/22 19:30:31;;;;;;;;;;;;;;;;;;;;;
2021/03/22 19:33:00;;;;;;;7.93;3.80;;;;;;;;;;5053984;28;20040;-57
2021/03/22 19:35:39;;;;;;;7.13;4.83;;;;;;;;;;5035516;28;20052;-57
2021/03/22 19:38:11;;;;;;;7.20;4.67;;;;;;;;;;5054298;28;20036;-57
2021/03/22 19:41:02;;;;;;;9.33;5.47;;;;;;;;;;5053811;28;20020;-58
2021/03/22 19:43:40;;;;;;;7.45;4.45;;;;;;;;;;5053779;28;20440;-57
2021/03/22 19:46:10;;;;;;;11.95;4.60;;;;;;;;;;5035669;28;20120;-58
2021/03/22 19:48:39;;;;;;;6.78;4.97;;;;;;;;;;5035920;28;20090;-58
2021/03/22 19:51:22;;;;;;;7.07;4.37;;;;;;;;;;5019454;28;20463;-56
2021/03/22 19:53:57;;;;;;;7.57;3.80;;;;;;;;;;5054354;28;20024;-58
2021/03/22 19:56:30;;;;;;;10.33;4.13;;;;;;;;;;5053612;28;20025;-58
2021/03/22 19:59:09;;;;;;;6.37;4.10;;;;;;;;;;5053832;28;20017;-57
2021/03/22 20:04:48;;;;;;;7.17;4.40;;;;;;;;;;5054261;28;20037;-56
2021/03/22 20:07:35;;;;;;;8.77;3.80;;;;;;;;;;5053305;28;20033;-54
2021/03/22 20:10:21;;;;;;;;;;;;;;;;;;;;;
2021/03/22 20:12:51;;;;;;;5.07;3.77;;;;;;;;;;5053803;28;20373;-56
2021/03/22 20:15:30;;;;;;;11.88;4.30;;;;;;;;;;5053749;28;20029;-57
2021/03/22 20:18:14;;;;;;;5.13;3.80;;;;;;;;;;5052890;28;20068;-58
2021/03/22 20:21:01;;;;;;;;;;;;;;;;;;;;;
2021/03/22 20:23:41;;;;;;;9.07;4.43;;;;;;;;;;5049947;28;20037;-57
2021/03/22 20:26:16;;;;;;;7.03;3.65;;;;;;;;;;5056774;28;20462;-57
2021/03/22 20:28:50;;;;;;;6.50;3.40;;;;;;;;;;5057752;28;20045;-58
2021/03/22 20:31:35;;;;;;;4.77;3.60;;;;;;;;;;5058528;28;20056;-57
2021/03/22 20:34:25;;;;;;;9.23;4.00;;;;;;;;;;5039085;28;20033;-55
2021/03/22 20:39:43;;;;;;;9.07;4.33;;;;;;;;;;5056841;28;20041;-55
2021/03/22 20:45:14;;;;;;;;;;;;;;;;;;;;;
2021/03/22 20:47:56;;;;;;;9.70;3.90;;;;;;;;;;5057457;28;20378;-57
2021/03/22 20:50:27;;;;;;;6.23;3.50;;;;;;;;;;5039630;28;20029;-57
2021/03/22 20:53:24;;;;;;;7.85;3.97;;;;;;;;;;5040130;28;20029;-57
2021/03/22 20:56:09;;;;;;;10.00;5.03;;;;;;;;;;5057072;28;20083;-55